createdAt,value
2022-11-18T00:01:13.622Z,61.43
2022-11-18T00:03:41.101Z,61.36
2022-11-18T00:06:12.717Z,61.59
2022-11-18T00:08:39.818Z,61.59
2022-11-18T00:11:09.167Z,61.64
2022-11-18T00:13:56.414Z,61.56
2022-11-18T00:16:24.022Z,61.78
2022-11-18T00:18:51.827Z,61.62
2022-11-18T00:21:18.741Z,61.75
2022-11-18T00:23:46.048Z,61.91
2022-11-18T00:26:14.935Z,61.62
2022-11-18T00:28:42.595Z,61.76
2022-11-18T00:31:12.689Z,61.85
2022-11-18T00:33:40.693Z,61.99
2022-11-18T00:36:10.743Z,61.91
2022-11-18T00:38:38.098Z,62.15
2022-11-18T00:41:07.921Z,61.94
2022-11-18T00:43:35.513Z,62.01
2022-11-18T00:46:03.659Z,62.19
2022-11-18T00:48:30.669Z,61.97
2022-11-18T00:50:59.923Z,62.00
2022-11-18T00:53:27.503Z,62.36
2022-11-18T00:55:54.525Z,61.98
2022-11-18T00:58:21.756Z,62.24
2022-11-18T01:00:52.443Z,62.30
2022-11-18T01:03:20.871Z,62.28
2022-11-18T01:05:48.314Z,62.32
2022-11-18T01:08:15.704Z,62.46
2022-11-18T01:10:42.860Z,62.25
2022-11-18T01:13:20.717Z,62.28
2022-11-18T01:15:57.394Z,62.54
2022-11-18T01:18:30.223Z,62.43
2022-11-18T01:21:01.821Z,62.29
2022-11-18T01:23:28.723Z,62.55
2022-11-18T01:25:55.857Z,62.49
2022-11-18T01:28:24.152Z,62.49
2022-11-18T01:30:51.550Z,62.47
2022-11-18T01:33:18.381Z,62.69
2022-11-18T01:35:45.659Z,62.71
2022-11-18T01:38:14.581Z,62.47
2022-11-18T01:40:41.868Z,62.83
2022-11-18T01:43:17.724Z,62.76
2022-11-18T01:45:46.970Z,62.58
2022-11-18T01:48:35.314Z,62.75
2022-11-18T01:51:09.945Z,62.64
2022-11-18T01:53:43.387Z,62.75
2022-11-18T01:56:17.750Z,62.85
2022-11-18T01:58:56.104Z,62.82
2022-11-18T02:01:23.436Z,62.86
2022-11-18T02:03:50.690Z,62.89
2022-11-18T02:06:18.276Z,62.80
2022-11-18T02:08:45.671Z,62.94
2022-11-18T02:11:34.750Z,62.80
2022-11-18T02:14:04.421Z,62.61
2022-11-18T02:16:43.212Z,62.77
2022-11-18T02:19:36.190Z,62.81
2022-11-18T02:22:16.135Z,63.14
2022-11-18T02:25:00.963Z,62.79
2022-11-18T02:27:49.425Z,62.90
2022-11-18T02:30:17.842Z,63.11
2022-11-18T02:32:58.473Z,62.73
2022-11-18T02:35:40.154Z,63.07
2022-11-18T02:38:27.319Z,63.00
2022-11-18T02:41:24.750Z,62.89
2022-11-18T02:43:59.987Z,62.99
2022-11-18T02:46:35.698Z,63.24
2022-11-18T02:49:10.234Z,62.95
2022-11-18T02:51:38.384Z,63.25
2022-11-18T02:54:08.792Z,63.12
2022-11-18T02:56:36.900Z,63.21
2022-11-18T02:59:04.932Z,63.07
2022-11-18T03:01:34.600Z,62.93
2022-11-18T03:04:01.656Z,63.17
2022-11-18T03:06:36.008Z,63.12
2022-11-18T03:09:08.677Z,63.10
2022-11-18T03:11:59.516Z,63.11
2022-11-18T03:14:44.382Z,63.35
2022-11-18T03:17:23.434Z,63.19
2022-11-18T03:20:11.302Z,63.18
2022-11-18T03:23:06.191Z,63.26
2022-11-18T03:25:44.467Z,63.32
2022-11-18T03:28:17.112Z,63.36
2022-11-18T03:30:54.062Z,63.30
2022-11-18T03:33:25.512Z,63.20
2022-11-18T03:35:54.865Z,63.52
2022-11-18T03:38:29.531Z,63.28
2022-11-18T03:41:01.605Z,63.09
2022-11-18T03:43:34.842Z,63.30
2022-11-18T03:46:11.020Z,63.40
2022-11-18T03:48:45.042Z,63.48
2022-11-18T03:51:17.771Z,63.41
2022-11-18T03:53:53.107Z,63.24
2022-11-18T03:56:25.477Z,63.42
2022-11-18T03:58:56.753Z,63.18
2022-11-18T04:01:39.280Z,63.44
2022-11-18T04:04:07.512Z,63.44
2022-11-18T04:06:50.048Z,63.58
2022-11-18T04:09:23.206Z,63.15
2022-11-18T04:12:06.472Z,63.41
2022-11-18T04:14:42.583Z,63.35
2022-11-18T04:17:15.339Z,63.30
2022-11-18T04:19:42.468Z,63.19
2022-11-18T04:22:10.563Z,63.49
2022-11-18T04:24:37.958Z,63.48
2022-11-18T04:27:05.608Z,63.46
2022-11-18T04:29:33.958Z,63.56
2022-11-18T04:32:01.922Z,63.58
2022-11-18T04:34:29.292Z,63.28
2022-11-18T04:36:56.057Z,63.70
2022-11-18T04:39:23.417Z,63.46
2022-11-18T04:41:56.298Z,63.44
2022-11-18T04:44:31.962Z,63.47
2022-11-18T04:47:01.997Z,63.59
2022-11-18T04:49:29.738Z,63.28
2022-11-18T04:51:57.327Z,63.55
2022-11-18T04:54:25.620Z,63.76
2022-11-18T04:56:53.135Z,63.51
2022-11-18T04:59:24.017Z,63.60
2022-11-18T05:01:51.585Z,63.42
2022-11-18T05:04:21.807Z,63.66
2022-11-18T05:06:48.972Z,63.47
2022-11-18T05:09:16.577Z,63.50
2022-11-18T05:12:02.233Z,63.72
2022-11-18T05:14:30.320Z,63.61
2022-11-18T05:16:58.928Z,63.54
2022-11-18T05:19:25.993Z,63.54
2022-11-18T05:21:53.823Z,63.41
2022-11-18T05:24:21.042Z,63.73
2022-11-18T05:26:47.864Z,63.47
2022-11-18T05:29:15.042Z,63.80
2022-11-18T05:31:42.101Z,63.72
2022-11-18T05:34:09.072Z,63.66
2022-11-18T05:36:35.878Z,63.75
2022-11-18T05:39:03.351Z,63.65
2022-11-18T05:41:48.974Z,63.38
2022-11-18T05:44:16.343Z,64.09
2022-11-18T05:46:43.237Z,64.27
2022-11-18T05:49:10.076Z,64.07
2022-11-18T05:51:36.961Z,63.85
2022-11-18T05:54:07.766Z,63.98
2022-11-18T05:56:34.661Z,63.82
2022-11-18T05:59:01.737Z,63.93
2022-11-18T06:02:01.098Z,64.30
2022-11-18T06:04:33.690Z,63.99
2022-11-18T06:07:18.881Z,64.05
2022-11-18T06:09:49.052Z,64.54
2022-11-18T06:12:19.464Z,64.41
2022-11-18T06:14:53.663Z,64.11
2022-11-18T06:17:28.352Z,64.33
2022-11-18T06:19:55.587Z,64.29
2022-11-18T06:22:22.520Z,64.07
2022-11-18T06:24:49.682Z,64.43
2022-11-18T06:27:16.893Z,63.99
2022-11-18T06:29:43.693Z,64.01
2022-11-18T06:32:11.418Z,64.35
2022-11-18T06:34:41.548Z,64.51
2022-11-18T06:37:16.792Z,64.53
2022-11-18T06:39:44.110Z,64.37
2022-11-18T06:42:11.395Z,64.56
2022-11-18T06:44:38.248Z,64.66
2022-11-18T06:47:05.744Z,64.56
2022-11-18T06:49:32.669Z,64.55
2022-11-18T06:51:59.833Z,64.52
2022-11-18T06:54:26.773Z,64.27
2022-11-18T06:56:53.619Z,64.80
2022-11-18T06:59:24.140Z,64.68
2022-11-18T07:01:53.598Z,64.54
2022-11-18T07:04:20.931Z,64.71
2022-11-18T07:06:48.044Z,64.49
2022-11-18T07:09:15.284Z,64.49
2022-11-18T07:11:42.494Z,64.17
2022-11-18T07:14:10.271Z,63.97
2022-11-18T07:16:38.248Z,64.17
2022-11-18T07:19:10.939Z,63.83
2022-11-18T07:21:38.844Z,63.64
2022-11-18T07:24:08.097Z,63.98
2022-11-18T07:26:36.100Z,63.94
2022-11-18T07:29:03.142Z,63.65
2022-11-18T07:31:30.306Z,63.69
2022-11-18T07:33:57.445Z,63.76
2022-11-18T07:36:32.271Z,63.92
2022-11-18T07:39:03.030Z,64.09
2022-11-18T07:41:31.289Z,63.82
2022-11-18T07:44:00.974Z,64.18
2022-11-18T07:46:37.250Z,63.87
2022-11-18T07:49:09.487Z,64.06
2022-11-18T07:51:38.523Z,64.11
2022-11-18T07:54:10.522Z,64.03
2022-11-18T07:56:37.562Z,63.99
2022-11-18T07:59:05.433Z,64.28
2022-11-18T08:01:32.526Z,64.26
2022-11-18T08:04:06.625Z,64.22
2022-11-18T08:06:35.288Z,64.44
2022-11-18T08:09:03.280Z,64.56
2022-11-18T08:11:30.207Z,64.57
2022-11-18T08:13:57.214Z,64.65
2022-11-18T08:16:26.169Z,64.54
2022-11-18T08:18:53.922Z,64.41
2022-11-18T08:21:22.432Z,64.39
2022-11-18T08:23:54.849Z,64.49
2022-11-18T08:26:22.563Z,64.53
2022-11-18T08:28:50.023Z,64.66
2022-11-18T08:31:23.258Z,64.49
2022-11-18T08:33:55.695Z,64.53
2022-11-18T08:36:25.657Z,64.54
2022-11-18T08:38:52.806Z,64.47
2022-11-18T08:41:26.276Z,64.50
2022-11-18T08:43:53.187Z,64.60
2022-11-18T08:46:20.359Z,64.70
2022-11-18T08:48:47.278Z,64.82
2022-11-18T08:51:17.470Z,64.66
2022-11-18T08:53:45.123Z,64.71
2022-11-18T08:56:16.584Z,64.70
2022-11-18T08:58:44.274Z,65.03
2022-11-18T09:01:11.937Z,65.00
2022-11-18T09:03:39.139Z,65.18
2022-11-18T09:06:15.744Z,64.89
2022-11-18T09:08:44.079Z,64.88
2022-11-18T09:11:26.731Z,64.92
2022-11-18T09:16:43.681Z,65.07
2022-11-18T09:21:58.518Z,65.06
2022-11-18T09:24:25.642Z,65.00
2022-11-18T09:26:53.942Z,65.22
2022-11-18T09:29:25.727Z,65.14
2022-11-18T09:31:55.043Z,65.08
2022-11-18T09:34:24.393Z,65.08
2022-11-18T09:36:57.731Z,65.08
2022-11-18T09:39:25.793Z,65.22
2022-11-18T09:42:03.405Z,65.26
2022-11-18T09:44:45.823Z,65.20
2022-11-18T09:47:23.719Z,65.24
2022-11-18T09:49:52.436Z,65.22
2022-11-18T09:52:25.644Z,65.44
2022-11-18T09:54:53.826Z,65.07
2022-11-18T09:57:25.745Z,65.19
2022-11-18T09:59:53.134Z,65.28
2022-11-18T10:02:55.472Z,65.32
2022-11-18T10:05:29.088Z,65.59
2022-11-18T10:08:14.438Z,65.53
2022-11-18T10:10:45.564Z,65.57
2022-11-18T10:13:38.738Z,65.52
2022-11-18T10:16:36.982Z,65.21
2022-11-18T10:19:09.247Z,65.53
2022-11-18T10:22:23.843Z,65.34
2022-11-18T10:24:55.048Z,65.38
2022-11-18T10:27:23.808Z,65.46
2022-11-18T10:29:57.675Z,65.58
2022-11-18T10:32:24.775Z,65.37
2022-11-18T10:34:55.958Z,65.46
2022-11-18T10:38:06.291Z,65.48
2022-11-18T10:40:28.940Z,65.63
2022-11-18T10:42:56.545Z,65.73
2022-11-18T10:45:23.856Z,65.50
2022-11-18T10:48:19.561Z,65.54
2022-11-18T10:50:55.887Z,65.34
2022-11-18T10:53:32.291Z,65.43
2022-11-18T10:56:05.438Z,65.71
2022-11-18T10:58:38.075Z,65.62
2022-11-18T11:01:09.158Z,65.62
2022-11-18T11:03:39.033Z,65.43
2022-11-18T11:06:21.338Z,65.76
2022-11-18T11:09:16.961Z,65.78
2022-11-18T11:11:57.064Z,65.65
2022-11-18T11:14:30.009Z,65.71
2022-11-18T11:17:03.600Z,65.56
2022-11-18T11:19:47.668Z,65.79
2022-11-18T11:22:16.077Z,65.90
2022-11-18T11:24:43.727Z,65.74
2022-11-18T11:30:18.882Z,65.86
2022-11-18T11:33:14.381Z,65.57
2022-11-18T11:36:05.645Z,65.62
2022-11-18T11:39:05.167Z,65.74
2022-11-18T11:41:49.338Z,65.86
2022-11-18T11:44:39.748Z,65.81
2022-11-18T11:47:47.759Z,65.74
2022-11-18T11:50:20.827Z,66.00
2022-11-18T11:52:54.070Z,65.93
2022-11-18T11:55:51.824Z,65.67
2022-11-18T11:58:42.697Z,65.81
2022-11-18T12:01:50.187Z,65.79
2022-11-18T12:04:26.020Z,65.83
2022-11-18T12:06:56.571Z,65.73
2022-11-18T12:09:32.897Z,66.00
2022-11-18T12:12:06.291Z,65.89
2022-11-18T12:14:46.463Z,66.16
2022-11-18T12:17:24.130Z,65.83
2022-11-18T12:19:51.309Z,66.30
2022-11-18T12:22:19.324Z,65.95
2022-11-18T12:24:46.820Z,66.04
2022-11-18T12:27:28.240Z,66.20
2022-11-18T12:30:00.427Z,66.08
2022-11-18T12:32:48.748Z,66.05
2022-11-18T12:35:15.610Z,66.09
2022-11-18T12:37:57.271Z,66.02
2022-11-18T12:40:50.491Z,65.96
2022-11-18T12:43:49.835Z,66.17
2022-11-18T12:46:35.026Z,66.03
2022-11-18T12:49:43.375Z,66.27
2022-11-18T12:52:33.716Z,66.28
2022-11-18T12:55:03.317Z,66.10
2022-11-18T12:57:33.458Z,66.16
2022-11-18T13:00:18.260Z,66.13
2022-11-18T13:02:53.048Z,66.29
2022-11-18T13:05:23.822Z,65.99
2022-11-18T13:08:13.589Z,66.04
2022-11-18T13:10:44.104Z,66.23
2022-11-18T13:13:27.568Z,66.03
2022-11-18T13:16:15.110Z,66.21
2022-11-18T13:18:53.115Z,66.04
2022-11-18T13:21:57.133Z,66.39
2022-11-18T13:24:24.272Z,66.20
2022-11-18T13:26:59.548Z,66.04
2022-11-18T13:29:42.553Z,66.18
2022-11-18T13:32:21.933Z,66.14
2022-11-18T13:34:54.945Z,66.27
2022-11-18T13:37:25.717Z,66.30
2022-11-18T13:39:53.596Z,66.30
2022-11-18T13:42:20.532Z,66.21
2022-11-18T13:45:13.284Z,66.32
2022-11-18T13:47:49.571Z,66.24
2022-11-18T13:50:43.586Z,66.28
2022-11-18T13:53:39.030Z,66.22
2022-11-18T13:56:08.374Z,66.29
2022-11-18T13:59:17.256Z,66.27
2022-11-18T14:01:39.121Z,66.19
2022-11-18T14:04:26.414Z,66.16
2022-11-18T14:06:54.470Z,66.33
2022-11-18T14:09:26.802Z,66.46
2022-11-18T14:12:14.819Z,66.26
2022-11-18T14:14:45.895Z,66.62
2022-11-18T14:17:26.462Z,66.27
2022-11-18T14:20:00.029Z,66.45
2022-11-18T14:22:31.353Z,66.21
2022-11-18T14:25:02.980Z,66.52
2022-11-18T14:27:50.185Z,66.41
2022-11-18T14:30:36.760Z,66.33
2022-11-18T14:33:22.382Z,66.59
2022-11-18T14:35:51.464Z,66.42
2022-11-18T14:41:11.459Z,66.61
2022-11-18T14:43:38.621Z,66.37
2022-11-18T14:46:26.538Z,66.42
2022-11-18T14:48:54.241Z,66.41
2022-11-18T14:51:21.174Z,66.68
2022-11-18T14:53:48.647Z,66.56
2022-11-18T14:56:20.207Z,66.68
2022-11-18T14:58:47.281Z,66.48
2022-11-18T15:01:14.545Z,66.59
2022-11-18T15:03:41.505Z,66.66
2022-11-18T15:06:16.458Z,66.61
2022-11-18T15:08:45.496Z,66.63
2022-11-18T15:11:12.729Z,66.91
2022-11-18T15:13:40.303Z,66.68
2022-11-18T15:16:28.968Z,66.71
2022-11-18T15:19:00.413Z,66.75
2022-11-18T15:21:28.213Z,66.59
2022-11-18T15:23:55.261Z,66.70
2022-11-18T15:26:34.517Z,66.58
2022-11-18T15:29:02.035Z,66.70
2022-11-18T15:31:29.070Z,66.82
2022-11-18T15:33:56.309Z,66.64
2022-11-18T15:36:25.881Z,66.80
2022-11-18T15:38:54.250Z,66.85
2022-11-18T15:41:23.934Z,66.80
2022-11-18T15:43:51.775Z,66.55
2022-11-18T15:46:20.287Z,66.73
2022-11-18T15:48:48.707Z,66.68
2022-11-18T15:51:16.738Z,67.02
2022-11-18T15:53:43.689Z,66.71
2022-11-18T15:56:19.704Z,66.90
2022-11-18T15:58:57.392Z,66.93
2022-11-18T16:01:36.149Z,66.91
2022-11-18T16:04:05.302Z,67.00
2022-11-18T16:06:32.900Z,67.04
2022-11-18T16:09:00.618Z,66.67
2022-11-18T16:11:47.729Z,67.01
2022-11-18T16:14:17.433Z,67.05
2022-11-18T16:16:46.259Z,67.04
2022-11-18T16:19:15.970Z,66.88
2022-11-18T16:21:47.295Z,66.88
2022-11-18T16:24:20.276Z,66.91
2022-11-18T16:26:48.294Z,67.09
2022-11-18T16:29:17.692Z,67.04
2022-11-18T16:31:51.167Z,67.29
2022-11-18T16:34:26.687Z,66.89
2022-11-18T16:36:56.791Z,66.86
2022-11-18T16:39:26.452Z,67.11
2022-11-18T16:42:03.764Z,67.06
2022-11-18T16:44:35.280Z,67.10
2022-11-18T16:47:03.787Z,67.05
2022-11-18T16:49:32.830Z,67.21
2022-11-18T16:51:59.752Z,66.85
2022-11-18T16:54:29.196Z,66.92
2022-11-18T16:56:58.540Z,66.91
2022-11-18T16:59:27.598Z,67.20
2022-11-18T17:01:56.310Z,66.97
2022-11-18T17:04:24.893Z,67.01
2022-11-18T17:06:52.445Z,67.07
2022-11-18T17:09:22.013Z,67.06
2022-11-18T17:11:50.420Z,67.12
2022-11-18T17:14:17.315Z,67.14
2022-11-18T17:16:44.267Z,67.22
2022-11-18T17:19:15.080Z,67.16
2022-11-18T17:21:42.481Z,67.10
2022-11-18T17:24:10.847Z,65.49
2022-11-18T17:26:38.042Z,64.79
2022-11-18T17:29:05.083Z,64.89
2022-11-18T17:31:32.338Z,64.79
2022-11-18T17:33:59.769Z,65.21
2022-11-18T17:36:28.036Z,65.51
2022-11-18T17:39:00.451Z,66.00
2022-11-18T17:41:47.466Z,66.06
2022-11-18T17:44:17.189Z,66.34
2022-11-18T17:46:45.029Z,66.67
2022-11-18T17:49:15.338Z,66.77
2022-11-18T17:51:43.258Z,67.15
2022-11-18T17:54:10.475Z,67.00
2022-11-18T17:56:37.683Z,66.88
2022-11-18T17:59:05.593Z,67.08
2022-11-18T18:01:32.795Z,67.16
2022-11-18T18:03:59.851Z,66.95
2022-11-18T18:06:27.239Z,67.22
2022-11-18T18:08:58.498Z,66.88
2022-11-18T18:11:26.136Z,67.01
2022-11-18T18:14:12.178Z,66.99
2022-11-18T18:16:48.227Z,66.89
2022-11-18T18:19:20.907Z,66.92
2022-11-18T18:21:48.047Z,66.94
2022-11-18T18:24:17.764Z,67.18
2022-11-18T18:26:45.199Z,66.97
2022-11-18T18:29:12.801Z,67.07
2022-11-18T18:31:40.015Z,67.18
2022-11-18T18:34:07.723Z,67.18
2022-11-18T18:36:37.523Z,66.81
2022-11-18T18:39:05.611Z,66.80
2022-11-18T18:41:32.912Z,66.94
2022-11-18T18:44:00.742Z,66.86
2022-11-18T18:46:35.051Z,66.77
2022-11-18T18:49:21.265Z,66.87
2022-11-18T18:51:50.169Z,66.87
2022-11-18T18:54:20.036Z,66.85
2022-11-18T18:56:47.544Z,66.87
2022-11-18T18:59:14.555Z,66.68
2022-11-18T19:01:41.733Z,66.32
2022-11-18T19:04:13.395Z,66.35
2022-11-18T19:06:56.705Z,66.75
2022-11-18T19:09:26.176Z,66.46
2022-11-18T19:12:12.737Z,66.18
2022-11-18T19:14:39.985Z,66.21
2022-11-18T19:17:11.377Z,66.21
2022-11-18T19:20:02.558Z,66.00
2022-11-18T19:22:32.622Z,66.13
2022-11-18T19:25:01.869Z,65.80
2022-11-18T19:27:29.852Z,65.83
2022-11-18T19:29:57.095Z,65.27
2022-11-18T19:32:24.363Z,65.40
2022-11-18T19:34:51.969Z,65.09
2022-11-18T19:37:19.156Z,64.80
2022-11-18T19:39:46.797Z,64.93
2022-11-18T19:42:13.906Z,64.81
2022-11-18T19:44:41.137Z,64.88
2022-11-18T19:47:08.335Z,64.66
2022-11-18T19:49:35.610Z,64.75
2022-11-18T19:52:02.840Z,64.54
2022-11-18T19:54:30.031Z,64.40
2022-11-18T19:56:56.929Z,64.07
2022-11-18T19:59:23.854Z,64.18
2022-11-18T20:01:51.124Z,64.19
2022-11-18T20:04:18.612Z,63.85
2022-11-18T20:06:46.572Z,63.51
2022-11-18T20:09:14.452Z,63.79
2022-11-18T20:11:41.690Z,63.26
2022-11-18T20:14:11.925Z,63.19
2022-11-18T20:16:39.263Z,63.32
2022-11-18T20:19:10.938Z,63.06
2022-11-18T20:21:45.556Z,63.07
2022-11-18T20:24:18.406Z,62.83
2022-11-18T20:26:46.174Z,62.75
2022-11-18T20:29:13.952Z,62.76
2022-11-18T20:31:41.353Z,62.55
2022-11-18T20:34:17.155Z,62.68
2022-11-18T20:36:45.867Z,62.66
2022-11-18T20:39:15.420Z,62.30
2022-11-18T20:41:43.170Z,62.20
2022-11-18T20:44:10.537Z,62.67
2022-11-18T20:46:38.163Z,62.46
2022-11-18T20:49:07.345Z,62.21
2022-11-18T20:51:34.886Z,62.33
2022-11-18T20:54:08.451Z,62.26
2022-11-18T20:56:35.928Z,62.31
2022-11-18T20:59:03.384Z,62.23
2022-11-18T21:01:30.737Z,62.08
2022-11-18T21:03:59.932Z,62.03
2022-11-18T21:06:29.545Z,61.93
2022-11-18T21:09:06.125Z,62.09
2022-11-18T21:11:36.665Z,61.59
2022-11-18T21:14:24.852Z,61.33
2022-11-18T21:17:03.001Z,61.71
2022-11-18T21:19:30.809Z,61.48
2022-11-18T21:21:58.099Z,61.39
2022-11-18T21:24:29.398Z,61.46
2022-11-18T21:26:57.800Z,61.33
2022-11-18T21:29:28.088Z,61.24
2022-11-18T21:31:55.804Z,61.17
2022-11-18T21:34:23.111Z,61.36
2022-11-18T21:36:54.961Z,61.04
2022-11-18T21:39:25.309Z,61.26
2022-11-18T21:41:56.336Z,60.78
2022-11-18T21:44:26.217Z,60.37
2022-11-18T21:46:53.947Z,60.32
2022-11-18T21:49:21.156Z,60.47
2022-11-18T21:51:49.192Z,60.02
2022-11-18T21:54:18.621Z,60.20
2022-11-18T21:56:45.946Z,60.28
2022-11-18T21:59:13.009Z,60.30
2022-11-18T22:01:40.097Z,60.20
2022-11-18T22:04:07.482Z,60.44
2022-11-18T22:06:35.535Z,59.26
2022-11-18T22:09:04.119Z,59.46
2022-11-18T22:11:34.255Z,59.41
2022-11-18T22:14:01.980Z,59.46
2022-11-18T22:16:28.987Z,59.54
2022-11-18T22:19:01.465Z,59.66
2022-11-18T22:21:32.376Z,59.76
2022-11-18T22:24:01.137Z,59.88
2022-11-18T22:26:29.984Z,59.88
2022-11-18T22:28:58.430Z,59.99
2022-11-18T22:31:27.731Z,60.22
2022-11-18T22:33:55.830Z,60.07
2022-11-18T22:36:25.958Z,60.20
2022-11-18T22:38:54.054Z,60.68
2022-11-18T22:41:44.194Z,60.47
2022-11-18T22:44:12.692Z,60.50
2022-11-18T22:46:41.461Z,60.60
2022-11-18T22:49:09.862Z,60.53
2022-11-18T22:51:38.010Z,60.62
2022-11-18T22:56:54.599Z,61.00
2022-11-18T22:59:21.881Z,60.96
2022-11-18T23:01:52.014Z,61.15
2022-11-18T23:04:19.108Z,61.13
2022-11-18T23:06:46.047Z,61.22
2022-11-18T23:09:13.306Z,61.25
2022-11-18T23:11:59.106Z,61.14
2022-11-18T23:14:26.084Z,61.39
2022-11-18T23:16:53.210Z,61.35
2022-11-18T23:19:20.556Z,61.53
2022-11-18T23:21:47.719Z,61.61
2022-11-18T23:24:16.571Z,61.69
2022-11-18T23:26:44.188Z,61.76
2022-11-18T23:29:12.292Z,62.25
2022-11-18T23:31:44.155Z,61.94
2022-11-18T23:34:13.205Z,61.90
2022-11-18T23:36:40.786Z,62.08
2022-11-18T23:39:07.953Z,62.03
2022-11-18T23:41:35.088Z,62.22
2022-11-18T23:44:02.429Z,62.25
2022-11-18T23:46:29.525Z,62.18
2022-11-18T23:48:56.499Z,62.41
2022-11-18T23:51:24.722Z,62.34
2022-11-18T23:53:54.901Z,62.35
2022-11-18T23:56:24.389Z,62.48
2022-11-18T23:58:54.473Z,62.32
